sensor_id;sensor_type;location;lat;lon;timestamp;pressure;altitude;pressure_sealevel;temperature;humidity
2401;BME280;1211;43.200;27.914;2023-02-08T00:00:19;102981.09;;;2.66;nan
2401;BME280;1211;43.200;27.914;2023-02-08T00:02:49;102491.28;;;-0.17;nan
2401;BME280;1211;43.200;27.914;2023-02-08T00:05:16;102593.16;;;0.48;nan
2401;BME280;1211;43.200;27.914;2023-02-08T00:07:43;102978.28;;;2.79;nan
2401;BME280;1211;43.200;27.914;2023-02-08T00:10:10;102934.00;;;2.40;nan
2401;BME280;1211;43.200;27.914;2023-02-08T00:12:37;102847.69;;;1.98;nan
2401;BME280;1211;43.200;27.914;2023-02-08T00:15:04;102993.50;;;2.93;nan
2401;BME280;1211;43.200;27.914;2023-02-08T00:17:31;102961.44;;;2.70;nan
2401;BME280;1211;43.200;27.914;2023-02-08T00:20:00;102964.94;;;2.71;nan
2401;BME280;1211;43.200;27.914;2023-02-08T00:22:26;102987.28;;;2.79;nan
2401;BME280;1211;43.200;27.914;2023-02-08T00:24:53;102959.13;;;2.67;nan
2401;BME280;1211;43.200;27.914;2023-02-08T00:27:20;102964.34;;;2.69;nan
2401;BME280;1211;43.200;27.914;2023-02-08T00:29:47;102910.28;;;2.23;nan
2401;BME280;1211;43.200;27.914;2023-02-08T00:32:13;102995.00;;;2.82;nan
2401;BME280;1211;43.200;27.914;2023-02-08T00:34:40;102975.28;;;2.94;nan
2401;BME280;1211;43.200;27.914;2023-02-08T00:37:08;103006.38;;;3.04;nan
2401;BME280;1211;43.200;27.914;2023-02-08T00:39:35;103002.69;;;3.17;nan
2401;BME280;1211;43.200;27.914;2023-02-08T00:42:02;102857.88;;;2.09;nan
2401;BME280;1211;43.200;27.914;2023-02-08T00:44:29;102898.69;;;2.34;nan
2401;BME280;1211;43.200;27.914;2023-02-08T00:46:56;102917.94;;;2.32;nan
2401;BME280;1211;43.200;27.914;2023-02-08T00:49:22;102988.81;;;3.00;nan
2401;BME280;1211;43.200;27.914;2023-02-08T00:51:49;102999.13;;;2.92;nan
2401;BME280;1211;43.200;27.914;2023-02-08T00:54:19;102926.69;;;2.41;nan
2401;BME280;1211;43.200;27.914;2023-02-08T00:56:46;102954.59;;;2.55;nan
2401;BME280;1211;43.200;27.914;2023-02-08T00:59:13;103000.44;;;2.82;nan
2401;BME280;1211;43.200;27.914;2023-02-08T01:01:40;103009.38;;;2.65;nan
2401;BME280;1211;43.200;27.914;2023-02-08T01:04:07;102359.63;;;-1.27;nan
2401;BME280;1211;43.200;27.914;2023-02-08T01:06:34;102998.13;;;2.55;nan
2401;BME280;1211;43.200;27.914;2023-02-08T01:09:00;102945.47;;;2.11;nan
2401;BME280;1211;43.200;27.914;2023-02-08T01:11:29;102976.47;;;2.41;nan
2401;BME280;1211;43.200;27.914;2023-02-08T01:13:55;102953.94;;;1.83;nan
2401;BME280;1211;43.200;27.914;2023-02-08T01:16:23;102986.28;;;1.98;nan
2401;BME280;1211;43.200;27.914;2023-02-08T01:18:51;103013.66;;;2.47;nan
2401;BME280;1211;43.200;27.914;2023-02-08T01:21:19;102953.59;;;2.18;nan
2401;BME280;1211;43.200;27.914;2023-02-08T01:23:46;103011.19;;;2.39;nan
2401;BME280;1211;43.200;27.914;2023-02-08T01:26:14;102957.56;;;2.15;nan
2401;BME280;1211;43.200;27.914;2023-02-08T01:28:42;103036.19;;;2.55;nan
2401;BME280;1211;43.200;27.914;2023-02-08T01:31:10;103034.50;;;2.60;nan
2401;BME280;1211;43.200;27.914;2023-02-08T01:33:37;103016.16;;;2.42;nan
2401;BME280;1211;43.200;27.914;2023-02-08T01:36:04;102965.19;;;1.87;nan
2401;BME280;1211;43.200;27.914;2023-02-08T01:38:31;103004.25;;;1.99;nan
2401;BME280;1211;43.200;27.914;2023-02-08T01:40:58;102998.44;;;1.82;nan
2401;BME280;1211;43.200;27.914;2023-02-08T01:43:26;102989.34;;;1.44;nan
2401;BME280;1211;43.200;27.914;2023-02-08T01:45:55;102968.44;;;1.51;nan
2401;BME280;1211;43.200;27.914;2023-02-08T01:48:23;102812.91;;;0.53;nan
2401;BME280;1211;43.200;27.914;2023-02-08T01:50:51;103001.41;;;1.67;nan
2401;BME280;1211;43.200;27.914;2023-02-08T01:53:20;103001.34;;;1.87;nan
2401;BME280;1211;43.200;27.914;2023-02-08T01:55:49;103010.75;;;1.85;nan
2401;BME280;1211;43.200;27.914;2023-02-08T01:58:16;102945.50;;;1.40;nan
2401;BME280;1211;43.200;27.914;2023-02-08T02:00:44;103096.16;;;2.15;nan
2401;BME280;1211;43.200;27.914;2023-02-08T02:03:13;103084.47;;;2.15;nan
2401;BME280;1211;43.200;27.914;2023-02-08T02:05:40;103050.63;;;1.97;nan
2401;BME280;1211;43.200;27.914;2023-02-08T02:08:08;103018.91;;;1.85;nan
2401;BME280;1211;43.200;27.914;2023-02-08T02:10:37;103079.09;;;1.95;nan
2401;BME280;1211;43.200;27.914;2023-02-08T02:13:05;103081.63;;;1.90;nan
2401;BME280;1211;43.200;27.914;2023-02-08T02:15:33;103026.69;;;1.61;nan
2401;BME280;1211;43.200;27.914;2023-02-08T02:18:00;103055.72;;;1.67;nan
2401;BME280;1211;43.200;27.914;2023-02-08T02:20:32;103000.63;;;1.08;nan
2401;BME280;1211;43.200;27.914;2023-02-08T02:29:01;103120.84;;;1.21;nan
2401;BME280;1211;43.200;27.914;2023-02-08T02:34:17;103103.31;;;1.11;nan
2401;BME280;1211;43.200;27.914;2023-02-08T02:36:50;103125.69;;;1.39;nan
2401;BME280;1211;43.200;27.914;2023-02-08T02:39:19;103102.47;;;1.10;nan
2401;BME280;1211;43.200;27.914;2023-02-08T02:41:52;102929.16;;;0.09;nan
2401;BME280;1211;43.200;27.914;2023-02-08T02:44:41;102919.78;;;0.18;nan
2401;BME280;1211;43.200;27.914;2023-02-08T02:47:10;103100.44;;;1.32;nan
2401;BME280;1211;43.200;27.914;2023-02-08T02:49:42;103126.72;;;1.18;nan
2401;BME280;1211;43.200;27.914;2023-02-08T02:52:13;102994.50;;;0.40;nan
2401;BME280;1211;43.200;27.914;2023-02-08T02:54:44;103116.44;;;0.94;nan
2401;BME280;1211;43.200;27.914;2023-02-08T02:57:14;103102.88;;;0.94;nan
2401;BME280;1211;43.200;27.914;2023-02-08T02:59:41;103123.34;;;0.97;nan
2401;BME280;1211;43.200;27.914;2023-02-08T03:02:09;103136.09;;;1.16;nan
2401;BME280;1211;43.200;27.914;2023-02-08T03:04:47;103123.06;;;0.78;nan
2401;BME280;1211;43.200;27.914;2023-02-08T03:07:15;103152.69;;;0.87;nan
2401;BME280;1211;43.200;27.914;2023-02-08T03:09:48;103123.94;;;0.86;nan
2401;BME280;1211;43.200;27.914;2023-02-08T03:12:21;103149.66;;;1.16;nan
2401;BME280;1211;43.200;27.914;2023-02-08T03:14:54;103032.44;;;0.40;nan
2401;BME280;1211;43.200;27.914;2023-02-08T03:17:30;102984.94;;;-0.04;nan
2401;BME280;1211;43.200;27.914;2023-02-08T03:20:04;103047.47;;;0.49;nan
2401;BME280;1211;43.200;27.914;2023-02-08T03:22:35;103048.94;;;0.52;nan
2401;BME280;1211;43.200;27.914;2023-02-08T03:25:06;102889.06;;;-0.63;nan
2401;BME280;1211;43.200;27.914;2023-02-08T03:27:35;103023.00;;;0.29;nan
2401;BME280;1211;43.200;27.914;2023-02-08T03:30:06;103067.53;;;0.61;nan
2401;BME280;1211;43.200;27.914;2023-02-08T03:32:37;103037.59;;;0.35;nan
2401;BME280;1211;43.200;27.914;2023-02-08T03:35:08;102987.75;;;-0.25;nan
2401;BME280;1211;43.200;27.914;2023-02-08T03:37:37;103033.81;;;0.23;nan
2401;BME280;1211;43.200;27.914;2023-02-08T03:40:06;102975.59;;;-0.42;nan
2401;BME280;1211;43.200;27.914;2023-02-08T03:42:35;103105.91;;;0.24;nan
2401;BME280;1211;43.200;27.914;2023-02-08T03:45:04;103075.53;;;0.35;nan
2401;BME280;1211;43.200;27.914;2023-02-08T03:47:33;103103.56;;;0.55;nan
2401;BME280;1211;43.200;27.914;2023-02-08T03:50:04;103134.34;;;0.41;nan
2401;BME280;1211;43.200;27.914;2023-02-08T03:52:34;103122.25;;;0.37;nan
2401;BME280;1211;43.200;27.914;2023-02-08T03:55:02;102853.84;;;-1.39;nan
2401;BME280;1211;43.200;27.914;2023-02-08T03:57:33;103129.91;;;0.27;nan
2401;BME280;1211;43.200;27.914;2023-02-08T04:00:04;103118.63;;;0.17;nan
2401;BME280;1211;43.200;27.914;2023-02-08T04:02:32;103122.41;;;0.29;nan
2401;BME280;1211;43.200;27.914;2023-02-08T04:05:00;103108.81;;;0.16;nan
2401;BME280;1211;43.200;27.914;2023-02-08T04:07:27;103088.31;;;0.07;nan
2401;BME280;1211;43.200;27.914;2023-02-08T04:09:55;103088.69;;;-0.03;nan
2401;BME280;1211;43.200;27.914;2023-02-08T04:12:22;103121.59;;;-0.06;nan
2401;BME280;1211;43.200;27.914;2023-02-08T04:14:49;103146.09;;;0.14;nan
2401;BME280;1211;43.200;27.914;2023-02-08T04:17:15;103163.78;;;0.10;nan
2401;BME280;1211;43.200;27.914;2023-02-08T04:19:42;103158.47;;;0.23;nan
2401;BME280;1211;43.200;27.914;2023-02-08T04:22:09;103127.44;;;-0.03;nan
2401;BME280;1211;43.200;27.914;2023-02-08T04:24:35;103152.94;;;0.10;nan
2401;BME280;1211;43.200;27.914;2023-02-08T04:27:04;103158.31;;;0.03;nan
2401;BME280;1211;43.200;27.914;2023-02-08T04:29:30;103163.22;;;0.21;nan
2401;BME280;1211;43.200;27.914;2023-02-08T04:31:58;103157.94;;;0.13;nan
2401;BME280;1211;43.200;27.914;2023-02-08T04:34:25;103173.72;;;0.03;nan
2401;BME280;1211;43.200;27.914;2023-02-08T04:36:52;103175.22;;;0.12;nan
2401;BME280;1211;43.200;27.914;2023-02-08T04:39:19;103192.50;;;0.04;nan
2401;BME280;1211;43.200;27.914;2023-02-08T04:41:46;103188.47;;;-0.07;nan
2401;BME280;1211;43.200;27.914;2023-02-08T04:44:14;103179.56;;;-0.01;nan
2401;BME280;1211;43.200;27.914;2023-02-08T04:46:41;103173.34;;;0.06;nan
2401;BME280;1211;43.200;27.914;2023-02-08T04:49:07;103180.81;;;0.04;nan
2401;BME280;1211;43.200;27.914;2023-02-08T04:51:34;103181.25;;;-0.21;nan
2401;BME280;1211;43.200;27.914;2023-02-08T04:54:01;103051.69;;;-1.01;nan
2401;BME280;1211;43.200;27.914;2023-02-08T04:56:28;103218.25;;;-0.07;nan
2401;BME280;1211;43.200;27.914;2023-02-08T04:58:55;103252.63;;;0.21;nan
2401;BME280;1211;43.200;27.914;2023-02-08T05:01:23;103261.16;;;0.46;nan
2401;BME280;1211;43.200;27.914;2023-02-08T05:03:50;103265.81;;;0.58;nan
2401;BME280;1211;43.200;27.914;2023-02-08T05:06:17;103263.19;;;0.71;nan
2401;BME280;1211;43.200;27.914;2023-02-08T05:08:44;103281.72;;;0.61;nan
2401;BME280;1211;43.200;27.914;2023-02-08T05:11:11;103261.53;;;0.43;nan
2401;BME280;1211;43.200;27.914;2023-02-08T05:13:38;103275.31;;;0.75;nan
2401;BME280;1211;43.200;27.914;2023-02-08T05:16:04;103271.66;;;0.90;nan
2401;BME280;1211;43.200;27.914;2023-02-08T05:18:33;103288.56;;;0.92;nan
2401;BME280;1211;43.200;27.914;2023-02-08T05:21:00;103282.81;;;1.08;nan
2401;BME280;1211;43.200;27.914;2023-02-08T05:23:28;103262.72;;;0.96;nan
2401;BME280;1211;43.200;27.914;2023-02-08T05:25:56;103289.16;;;1.28;nan
2401;BME280;1211;43.200;27.914;2023-02-08T05:28:23;102162.13;;;-5.76;nan
2401;BME280;1211;43.200;27.914;2023-02-08T05:30:50;102075.31;;;-6.19;nan
2401;BME280;1211;43.200;27.914;2023-02-08T05:33:16;102200.13;;;-5.58;nan
2401;BME280;1211;43.200;27.914;2023-02-08T05:35:45;102256.00;;;-5.18;nan
2401;BME280;1211;43.200;27.914;2023-02-08T05:38:12;102247.47;;;-5.07;nan
2401;BME280;1211;43.200;27.914;2023-02-08T05:40:39;102136.66;;;-5.81;nan
2401;BME280;1211;43.200;27.914;2023-02-08T05:43:06;103225.91;;;0.80;nan
2401;BME280;1211;43.200;27.914;2023-02-08T05:45:33;103229.75;;;0.99;nan
2401;BME280;1211;43.200;27.914;2023-02-08T05:48:00;103283.69;;;1.15;nan
2401;BME280;1211;43.200;27.914;2023-02-08T05:50:26;103279.34;;;1.34;nan
2401;BME280;1211;43.200;27.914;2023-02-08T05:52:55;103291.41;;;1.72;nan
2401;BME280;1211;43.200;27.914;2023-02-08T05:55:22;103293.09;;;2.19;nan
2401;BME280;1211;43.200;27.914;2023-02-08T05:57:50;103268.44;;;2.40;nan
2401;BME280;1211;43.200;27.914;2023-02-08T06:00:17;103258.41;;;2.47;nan
2401;BME280;1211;43.200;27.914;2023-02-08T06:02:44;103227.66;;;2.27;nan
2401;BME280;1211;43.200;27.914;2023-02-08T06:05:11;103299.34;;;2.72;nan
2401;BME280;1211;43.200;27.914;2023-02-08T06:07:37;103294.25;;;3.15;nan
2401;BME280;1211;43.200;27.914;2023-02-08T06:10:06;103262.44;;;3.09;nan
2401;BME280;1211;43.200;27.914;2023-02-08T06:12:33;103238.53;;;3.11;nan
2401;BME280;1211;43.200;27.914;2023-02-08T06:15:00;103224.84;;;2.73;nan
2401;BME280;1211;43.200;27.914;2023-02-08T06:17:27;103218.59;;;2.60;nan
2401;BME280;1211;43.200;27.914;2023-02-08T06:19:54;103091.00;;;1.81;nan
2401;BME280;1211;43.200;27.914;2023-02-08T06:22:21;102406.22;;;-2.12;nan
2401;BME280;1211;43.200;27.914;2023-02-08T06:24:47;103041.44;;;2.05;nan
2401;BME280;1211;43.200;27.914;2023-02-08T06:27:15;102308.09;;;-2.59;nan
2401;BME280;1211;43.200;27.914;2023-02-08T06:29:42;102523.19;;;-1.25;nan
2401;BME280;1211;43.200;27.914;2023-02-08T06:32:09;103046.88;;;1.98;nan
2401;BME280;1211;43.200;27.914;2023-02-08T06:34:36;102501.94;;;-1.47;nan
2401;BME280;1211;43.200;27.914;2023-02-08T06:37:03;102540.06;;;-0.50;nan
2401;BME280;1211;43.200;27.914;2023-02-08T06:39:30;102558.69;;;0.17;nan
2401;BME280;1211;43.200;27.914;2023-02-08T06:41:56;102932.38;;;1.95;nan
2401;BME280;1211;43.200;27.914;2023-02-08T06:44:25;102799.13;;;1.83;nan
2401;BME280;1211;43.200;27.914;2023-02-08T06:46:52;103039.06;;;2.66;nan
2401;BME280;1211;43.200;27.914;2023-02-08T06:49:18;103057.53;;;2.58;nan
2401;BME280;1211;43.200;27.914;2023-02-08T06:51:45;103097.38;;;2.77;nan
2401;BME280;1211;43.200;27.914;2023-02-08T06:54:12;102891.69;;;1.82;nan
2401;BME280;1211;43.200;27.914;2023-02-08T06:56:39;102787.44;;;0.80;nan
2401;BME280;1211;43.200;27.914;2023-02-08T06:59:06;103084.88;;;2.18;nan
2401;BME280;1211;43.200;27.914;2023-02-08T07:01:34;103040.63;;;1.85;nan
2401;BME280;1211;43.200;27.914;2023-02-08T07:04:01;102963.44;;;0.56;nan
2401;BME280;1211;43.200;27.914;2023-02-08T07:06:28;102891.63;;;0.12;nan
2401;BME280;1211;43.200;27.914;2023-02-08T07:08:54;102654.97;;;-1.33;nan
2401;BME280;1211;43.200;27.914;2023-02-08T07:11:21;102827.00;;;-0.11;nan
2401;BME280;1211;43.200;27.914;2023-02-08T07:13:49;102792.63;;;-0.17;nan
2401;BME280;1211;43.200;27.914;2023-02-08T07:16:16;102905.41;;;0.24;nan
2401;BME280;1211;43.200;27.914;2023-02-08T07:18:44;102771.09;;;-0.64;nan
2401;BME280;1211;43.200;27.914;2023-02-08T07:21:11;102971.41;;;1.16;nan
2401;BME280;1211;43.200;27.914;2023-02-08T07:23:38;102930.09;;;1.14;nan
2401;BME280;1211;43.200;27.914;2023-02-08T07:26:06;102857.31;;;0.65;nan
2401;BME280;1211;43.200;27.914;2023-02-08T07:28:33;103028.91;;;1.97;nan
2401;BME280;1211;43.200;27.914;2023-02-08T07:31:03;103052.03;;;2.20;nan
2401;BME280;1211;43.200;27.914;2023-02-08T07:33:30;103132.84;;;2.64;nan
2401;BME280;1211;43.200;27.914;2023-02-08T07:35:58;103043.97;;;1.93;nan
2401;BME280;1211;43.200;27.914;2023-02-08T07:38:25;103140.03;;;2.25;nan
2401;BME280;1211;43.200;27.914;2023-02-08T07:40:58;103096.03;;;1.77;nan
2401;BME280;1211;43.200;27.914;2023-02-08T07:43:25;103131.75;;;1.48;nan
2401;BME280;1211;43.200;27.914;2023-02-08T07:45:52;103191.72;;;1.99;nan
2401;BME280;1211;43.200;27.914;2023-02-08T07:48:19;103089.78;;;1.57;nan
2401;BME280;1211;43.200;27.914;2023-02-08T07:50:45;103102.72;;;1.68;nan
2401;BME280;1211;43.200;27.914;2023-02-08T07:53:14;103006.69;;;1.36;nan
2401;BME280;1211;43.200;27.914;2023-02-08T07:55:40;103168.00;;;2.59;nan
2401;BME280;1211;43.200;27.914;2023-02-08T07:58:07;103124.53;;;2.45;nan
2401;BME280;1211;43.200;27.914;2023-02-08T08:00:34;103144.50;;;2.71;nan
2401;BME280;1211;43.200;27.914;2023-02-08T08:03:00;103129.44;;;3.44;nan
2401;BME280;1211;43.200;27.914;2023-02-08T08:05:27;102361.22;;;-1.00;nan
2401;BME280;1211;43.200;27.914;2023-02-08T08:07:54;103264.88;;;3.93;nan
2401;BME280;1211;43.200;27.914;2023-02-08T08:10:22;103259.75;;;3.41;nan
2401;BME280;1211;43.200;27.914;2023-02-08T08:12:49;103221.97;;;2.62;nan
2401;BME280;1211;43.200;27.914;2023-02-08T08:15:15;103161.78;;;2.25;nan
2401;BME280;1211;43.200;27.914;2023-02-08T08:17:42;103055.34;;;1.31;nan
2401;BME280;1211;43.200;27.914;2023-02-08T08:20:09;103256.84;;;2.84;nan
2401;BME280;1211;43.200;27.914;2023-02-08T08:22:36;103203.13;;;2.54;nan
2401;BME280;1211;43.200;27.914;2023-02-08T08:25:03;103211.72;;;2.57;nan
2401;BME280;1211;43.200;27.914;2023-02-08T08:27:32;103204.34;;;2.71;nan
2401;BME280;1211;43.200;27.914;2023-02-08T08:29:59;103281.34;;;2.71;nan
2401;BME280;1211;43.200;27.914;2023-02-08T08:32:26;103233.47;;;2.57;nan
2401;BME280;1211;43.200;27.914;2023-02-08T08:34:52;103185.06;;;2.01;nan
2401;BME280;1211;43.200;27.914;2023-02-08T08:37:19;103228.91;;;2.31;nan
2401;BME280;1211;43.200;27.914;2023-02-08T08:39:46;103223.47;;;2.51;nan
2401;BME280;1211;43.200;27.914;2023-02-08T08:42:12;103138.81;;;2.08;nan
2401;BME280;1211;43.200;27.914;2023-02-08T08:44:41;103019.59;;;1.60;nan
2401;BME280;1211;43.200;27.914;2023-02-08T08:47:08;103254.94;;;2.92;nan
2401;BME280;1211;43.200;27.914;2023-02-08T08:49:35;103213.81;;;2.62;nan
2401;BME280;1211;43.200;27.914;2023-02-08T08:52:02;103270.84;;;2.88;nan
2401;BME280;1211;43.200;27.914;2023-02-08T08:54:32;103181.81;;;2.51;nan
2401;BME280;1211;43.200;27.914;2023-02-08T08:56:58;102945.53;;;0.94;nan
2401;BME280;1211;43.200;27.914;2023-02-08T08:59:25;103274.72;;;2.47;nan
2401;BME280;1211;43.200;27.914;2023-02-08T09:01:54;103222.22;;;2.14;nan
2401;BME280;1211;43.200;27.914;2023-02-08T09:04:20;103237.50;;;2.28;nan
2401;BME280;1211;43.200;27.914;2023-02-08T09:06:47;103303.13;;;2.71;nan
2401;BME280;1211;43.200;27.914;2023-02-08T09:09:14;103291.31;;;3.10;nan
2401;BME280;1211;43.200;27.914;2023-02-08T09:11:41;103192.88;;;2.62;nan
2401;BME280;1211;43.200;27.914;2023-02-08T09:14:11;103266.06;;;3.35;nan
2401;BME280;1211;43.200;27.914;2023-02-08T09:16:39;103150.13;;;2.05;nan
2401;BME280;1211;43.200;27.914;2023-02-08T09:19:09;103055.75;;;1.54;nan
2401;BME280;1211;43.200;27.914;2023-02-08T09:21:36;103272.63;;;3.27;nan
2401;BME280;1211;43.200;27.914;2023-02-08T09:24:04;103297.25;;;2.81;nan
2401;BME280;1211;43.200;27.914;2023-02-08T09:26:31;102644.50;;;-0.89;nan
2401;BME280;1211;43.200;27.914;2023-02-08T09:28:59;103288.41;;;3.05;nan
2401;BME280;1211;43.200;27.914;2023-02-08T09:31:27;103314.50;;;3.26;nan
2401;BME280;1211;43.200;27.914;2023-02-08T09:33:55;102648.25;;;-0.83;nan
2401;BME280;1211;43.200;27.914;2023-02-08T09:36:25;103292.13;;;3.17;nan
2401;BME280;1211;43.200;27.914;2023-02-08T09:38:54;103208.63;;;2.27;nan
2401;BME280;1211;43.200;27.914;2023-02-08T09:41:27;102879.22;;;0.57;nan
2401;BME280;1211;43.200;27.914;2023-02-08T09:44:02;103271.28;;;2.85;nan
2401;BME280;1211;43.200;27.914;2023-02-08T09:46:32;103289.28;;;2.93;nan
2401;BME280;1211;43.200;27.914;2023-02-08T09:49:02;102939.06;;;0.89;nan
2401;BME280;1211;43.200;27.914;2023-02-08T09:51:36;102512.94;;;-1.62;nan
2401;BME280;1211;43.200;27.914;2023-02-08T09:54:05;102525.75;;;-1.71;nan
2401;BME280;1211;43.200;27.914;2023-02-08T09:56:33;102899.03;;;0.84;nan
2401;BME280;1211;43.200;27.914;2023-02-08T09:59:04;103046.97;;;1.33;nan
2401;BME280;1211;43.200;27.914;2023-02-08T10:01:32;103316.06;;;2.89;nan
2401;BME280;1211;43.200;27.914;2023-02-08T10:04:00;103292.03;;;2.79;nan
2401;BME280;1211;43.200;27.914;2023-02-08T10:06:28;103246.25;;;2.43;nan
2401;BME280;1211;43.200;27.914;2023-02-08T10:08:58;103276.94;;;2.90;nan
2401;BME280;1211;43.200;27.914;2023-02-08T10:11:32;103217.44;;;2.16;nan
2401;BME280;1211;43.200;27.914;2023-02-08T10:14:16;103212.03;;;1.90;nan
2401;BME280;1211;43.200;27.914;2023-02-08T10:16:53;103342.91;;;2.53;nan
2401;BME280;1211;43.200;27.914;2023-02-08T10:19:26;103337.66;;;2.25;nan
2401;BME280;1211;43.200;27.914;2023-02-08T10:22:02;103352.97;;;2.59;nan
2401;BME280;1211;43.200;27.914;2023-02-08T10:24:45;103341.84;;;2.27;nan
2401;BME280;1211;43.200;27.914;2023-02-08T10:27:16;103371.78;;;2.73;nan
2401;BME280;1211;43.200;27.914;2023-02-08T10:32:53;103295.19;;;1.97;100.00
2401;BME280;1211;43.200;27.914;2023-02-08T10:35:24;103217.84;;;1.60;100.00
2401;BME280;1211;43.200;27.914;2023-02-08T10:37:52;103195.91;;;1.88;100.00
2401;BME280;1211;43.200;27.914;2023-02-08T10:40:25;103250.41;;;1.54;100.00
2401;BME280;1211;43.200;27.914;2023-02-08T10:43:02;101453.00;;;-9.58;100.00
2401;BME280;1211;43.200;27.914;2023-02-08T10:45:31;102018.38;;;-5.71;100.00
2401;BME280;1211;43.200;27.914;2023-02-08T10:48:04;102043.16;;;-5.33;100.00
2401;BME280;1211;43.200;27.914;2023-02-08T10:50:37;102072.31;;;-5.09;100.00
2401;BME280;1211;43.200;27.914;2023-02-08T10:53:05;102149.88;;;-4.78;100.00
2401;BME280;1211;43.200;27.914;2023-02-08T10:55:32;101822.63;;;-6.35;100.00
2401;BME280;1211;43.200;27.914;2023-02-08T10:58:01;101917.78;;;-6.03;100.00
2401;BME280;1211;43.200;27.914;2023-02-08T11:00:32;101885.94;;;-6.12;100.00
2401;BME280;1211;43.200;27.914;2023-02-08T11:03:01;101674.59;;;-7.66;100.00
2401;BME280;1211;43.200;27.914;2023-02-08T11:05:33;101945.84;;;-6.20;100.00
2401;BME280;1211;43.200;27.914;2023-02-08T11:08:04;101973.22;;;-5.46;100.00
2401;BME280;1211;43.200;27.914;2023-02-08T11:10:31;102064.19;;;-4.94;100.00
2401;BME280;1211;43.200;27.914;2023-02-08T11:12:58;102075.59;;;-5.49;100.00
2401;BME280;1211;43.200;27.914;2023-02-08T11:15:28;101970.91;;;-5.92;100.00
2401;BME280;1211;43.200;27.914;2023-02-08T11:17:57;102214.56;;;-4.16;100.00
2401;BME280;1211;43.200;27.914;2023-02-08T11:20:28;102679.41;;;-1.48;100.00
2401;BME280;1211;43.200;27.914;2023-02-08T11:23:00;102728.88;;;-1.06;100.00
2401;BME280;1211;43.200;27.914;2023-02-08T11:25:31;103375.81;;;3.48;100.00
2401;BME280;1211;43.200;27.914;2023-02-08T11:27:59;103375.72;;;3.10;100.00
2401;BME280;1211;43.200;27.914;2023-02-08T11:30:31;103392.69;;;2.86;100.00
2401;BME280;1211;43.200;27.914;2023-02-08T11:33:12;103373.25;;;2.56;100.00
2401;BME280;1211;43.200;27.914;2023-02-08T11:35:39;103399.19;;;2.59;100.00
2401;BME280;1211;43.200;27.914;2023-02-08T11:38:14;103374.06;;;2.96;100.00
2401;BME280;1211;43.200;27.914;2023-02-08T11:40:51;103384.31;;;2.94;100.00
2401;BME280;1211;43.200;27.914;2023-02-08T11:43:20;103388.50;;;2.37;100.00
2401;BME280;1211;43.200;27.914;2023-02-08T11:45:47;103372.19;;;2.24;100.00
2401;BME280;1211;43.200;27.914;2023-02-08T11:48:19;103367.38;;;2.46;100.00
2401;BME280;1211;43.200;27.914;2023-02-08T11:50:51;103357.34;;;2.60;100.00
2401;BME280;1211;43.200;27.914;2023-02-08T11:53:21;103363.00;;;2.45;100.00
2401;BME280;1211;43.200;27.914;2023-02-08T11:56:00;103343.94;;;2.38;100.00
2401;BME280;1211;43.200;27.914;2023-02-08T11:58:28;103323.22;;;2.37;100.00
2401;BME280;1211;43.200;27.914;2023-02-08T12:00:59;103353.16;;;2.24;100.00
2401;BME280;1211;43.200;27.914;2023-02-08T12:03:26;103337.03;;;2.49;100.00
2401;BME280;1211;43.200;27.914;2023-02-08T12:05:57;103287.25;;;2.02;100.00
2401;BME280;1211;43.200;27.914;2023-02-08T12:08:32;103318.25;;;2.47;100.00
2401;BME280;1211;43.200;27.914;2023-02-08T12:11:06;103101.22;;;1.06;100.00
2401;BME280;1211;43.200;27.914;2023-02-08T12:13:41;103349.81;;;2.75;100.00
2401;BME280;1211;43.200;27.914;2023-02-08T12:16:15;103350.44;;;2.64;100.00
2401;BME280;1211;43.200;27.914;2023-02-08T12:18:53;103316.53;;;2.73;100.00
2401;BME280;1211;43.200;27.914;2023-02-08T12:21:25;103284.97;;;2.45;100.00
2401;BME280;1211;43.200;27.914;2023-02-08T12:23:55;103289.34;;;2.27;100.00
2401;BME280;1211;43.200;27.914;2023-02-08T12:29:19;103302.28;;;2.84;100.00
2401;BME280;1211;43.200;27.914;2023-02-08T12:31:51;103213.25;;;2.20;100.00
2401;BME280;1211;43.200;27.914;2023-02-08T12:34:26;103194.72;;;2.75;100.00
2401;BME280;1211;43.200;27.914;2023-02-08T12:37:01;103341.88;;;3.51;100.00
2401;BME280;1211;43.200;27.914;2023-02-08T12:39:51;103339.13;;;3.95;100.00
2401;BME280;1211;43.200;27.914;2023-02-08T12:42:46;103222.94;;;3.31;100.00
2401;BME280;1211;43.200;27.914;2023-02-08T12:45:19;103208.38;;;3.13;100.00
2401;BME280;1211;43.200;27.914;2023-02-08T12:47:58;103305.47;;;4.08;100.00
2401;BME280;1211;43.200;27.914;2023-02-08T12:50:30;103230.63;;;3.79;100.00
2401;BME280;1211;43.200;27.914;2023-02-08T12:53:01;103179.78;;;3.28;100.00
2401;BME280;1211;43.200;27.914;2023-02-08T12:55:30;102020.66;;;-3.86;100.00
2401;BME280;1211;43.200;27.914;2023-02-08T12:58:02;101171.91;;;-8.69;100.00
2401;BME280;1211;43.200;27.914;2023-02-08T13:00:31;102945.16;;;1.81;99.35
2401;BME280;1211;43.200;27.914;2023-02-08T13:03:00;103065.09;;;2.49;98.11
2401;BME280;1211;43.200;27.914;2023-02-08T13:05:32;103036.75;;;2.25;98.17
2401;BME280;1211;43.200;27.914;2023-02-08T13:08:01;102998.28;;;1.71;98.97
2401;BME280;1211;43.200;27.914;2023-02-08T13:10:34;102955.75;;;1.38;98.75
2401;BME280;1211;43.200;27.914;2023-02-08T13:13:05;101907.03;;;-4.83;97.75
2401;BME280;1211;43.200;27.914;2023-02-08T13:15:36;101528.38;;;-7.29;98.58
2401;BME280;1211;43.200;27.914;2023-02-08T13:18:08;101675.50;;;-6.93;98.29
2401;BME280;1211;43.200;27.914;2023-02-08T13:20:37;102967.44;;;1.06;100.00
2401;BME280;1211;43.200;27.914;2023-02-08T13:23:09;102920.06;;;0.49;100.00
2401;BME280;1211;43.200;27.914;2023-02-08T13:25:40;102465.69;;;-2.33;100.00
2401;BME280;1211;43.200;27.914;2023-02-08T13:28:11;102907.09;;;0.25;100.00
2401;BME280;1211;43.200;27.914;2023-02-08T13:30:42;102949.25;;;0.54;100.00
2401;BME280;1211;43.200;27.914;2023-02-08T13:33:13;102951.72;;;0.22;100.00
2401;BME280;1211;43.200;27.914;2023-02-08T13:35:42;102973.69;;;0.60;100.00
2401;BME280;1211;43.200;27.914;2023-02-08T13:38:17;102960.91;;;0.34;100.00
2401;BME280;1211;43.200;27.914;2023-02-08T13:40:46;102953.41;;;0.36;100.00
2401;BME280;1211;43.200;27.914;2023-02-08T13:43:19;102982.19;;;0.44;100.00
2401;BME280;1211;43.200;27.914;2023-02-08T13:45:49;102931.13;;;0.54;100.00